Time;durP1;ratioP1;P1;durP2;ratioP2;P2;SDS_P1;SDS_P2;PMS_P1;PMS_P2;Temp;Humidity;BMP_temperature;BMP_pressure;BME280_temperature;BME280_humidity;BME280_pressure;Samples;Min_cycle;Max_cycle;Signal;HPM_P1;HPM_P2
2022/04/28 00:02:00;;;;;;;9.23;3.78;;;8.60;95.40;;;;;;5036623;28;20602;-74
2022/04/28 00:04:27;;;;;;;8.15;3.60;;;8.60;95.20;;;;;;5018463;28;20028;-75
2022/04/28 00:06:53;;;;;;;12.98;5.35;;;8.50;95.30;;;;;;5021509;28;20035;-74
2022/04/28 00:09:18;;;;;;;14.55;4.05;;;8.50;95.60;;;;;;5019331;28;20404;-74
2022/04/28 00:11:44;;;;;;;13.85;3.92;;;8.50;95.60;;;;;;5020720;28;20041;-74
2022/04/28 00:14:10;;;;;;;8.48;3.90;;;8.60;95.70;;;;;;5017068;28;20033;-74
2022/04/28 00:16:36;;;;;;;13.55;4.80;;;8.60;95.60;;;;;;5037403;28;20036;-75
2022/04/28 00:19:02;;;;;;;11.13;4.13;;;8.60;95.70;;;;;;5020969;28;20359;-74
2022/04/28 00:21:29;;;;;;;7.50;3.90;;;8.60;95.70;;;;;;5021884;28;20033;-73
2022/04/28 00:23:55;;;;;;;10.30;4.75;;;8.50;95.90;;;;;;5035925;28;20100;-75
2022/04/28 00:26:21;;;;;;;14.07;5.50;;;8.50;96.00;;;;;;5018340;28;20159;-75
2022/04/28 00:28:47;;;;;;;13.20;4.53;;;8.40;96.50;;;;;;5033974;28;20531;-73
2022/04/28 00:31:13;;;;;;;11.57;5.47;;;8.40;96.30;;;;;;5002514;28;20025;-73
2022/04/28 00:33:41;;;;;;;10.85;4.90;;;8.40;96.50;;;;;;5020061;28;20028;-74
2022/04/28 00:36:09;;;;;;;15.27;5.03;;;8.40;96.70;;;;;;5006565;28;20032;-75
2022/04/28 00:38:35;;;;;;;10.85;5.30;;;8.40;96.80;;;;;;5018400;28;20100;-74
2022/04/28 00:41:02;;;;;;;15.00;4.63;;;8.50;96.70;;;;;;5018199;28;20097;-76
2022/04/28 00:43:31;;;;;;;10.10;4.35;;;8.40;96.70;;;;;;5032463;28;20125;-74
2022/04/28 00:45:57;;;;;;;12.50;4.68;;;8.30;96.90;;;;;;5036655;28;20036;-72
2022/04/28 00:51:09;;;;;;;14.88;4.28;;;8.20;97.10;;;;;;5040058;28;20428;-74
2022/04/28 00:53:44;;;;;;;8.38;4.05;;;8.20;97.20;;;;;;5018863;28;20057;-71
2022/04/28 00:56:10;;;;;;;9.73;4.05;;;8.20;97.00;;;;;;5017599;28;20416;-71
2022/04/28 00:58:39;;;;;;;10.93;4.70;;;8.10;97.50;;;;;;5022015;28;20031;-71
2022/04/28 01:01:04;;;;;;;12.60;4.30;;;8.00;97.80;;;;;;5035306;28;20029;-71
2022/04/28 01:03:30;;;;;;;13.02;3.90;;;8.00;97.80;;;;;;5013027;28;20397;-71
2022/04/28 01:05:59;;;;;;;10.48;4.40;;;8.00;97.80;;;;;;5023098;28;20029;-71
2022/04/28 01:08:26;;;;;;;10.32;4.28;;;8.00;97.90;;;;;;5019239;28;20029;-71
2022/04/28 01:10:53;;;;;;;12.70;5.50;;;8.00;97.80;;;;;;5036811;28;20032;-71
2022/04/28 01:13:19;;;;;;;14.07;4.95;;;8.10;97.90;;;;;;5019763;28;20078;-72
2022/04/28 01:15:47;;;;;;;12.43;4.22;;;8.10;97.80;;;;;;5022030;28;20021;-71
2022/04/28 01:18:13;;;;;;;8.85;4.47;;;8.00;98.20;;;;;;5035563;28;20104;-71
2022/04/28 01:20:39;;;;;;;16.40;5.00;;;7.90;98.10;;;;;;5040136;28;20052;-71
2022/04/28 01:23:06;;;;;;;12.90;4.75;;;7.90;98.30;;;;;;5016319;28;20039;-70
2022/04/28 01:25:31;;;;;;;7.82;3.75;;;7.90;98.40;;;;;;5033270;28;20110;-71
2022/04/28 01:27:58;;;;;;;8.93;4.68;;;8.00;98.40;;;;;;5035738;28;20493;-72
2022/04/28 01:30:24;;;;;;;11.57;4.47;;;8.00;98.20;;;;;;5019227;28;20096;-71
2022/04/28 01:32:51;;;;;;;13.15;4.63;;;8.00;98.70;;;;;;5034329;28;20049;-71
2022/04/28 01:35:17;;;;;;;11.52;4.22;;;7.90;98.60;;;;;;5036048;28;20112;-72
2022/04/28 01:37:42;;;;;;;12.65;4.85;;;7.90;98.50;;;;;;5019146;28;20120;-71
2022/04/28 01:40:11;;;;;;;12.40;4.88;;;7.80;99.10;;;;;;5037324;28;20061;-72
2022/04/28 01:42:42;;;;;;;11.45;5.63;;;7.60;99.60;;;;;;5016575;28;20749;-72
2022/04/28 01:45:09;;;;;;;11.05;5.78;;;7.60;99.60;;;;;;5019416;28;20030;-71
2022/04/28 01:47:35;;;;;;;10.82;5.40;;;7.60;99.60;;;;;;5037426;28;20373;-71
2022/04/28 01:50:03;;;;;;;10.88;5.25;;;7.60;99.50;;;;;;5017364;28;20100;-71
2022/04/28 01:55:13;;;;;;;9.05;5.20;;;7.60;99.50;;;;;;5032262;28;20542;-71
2022/04/28 01:57:39;;;;;;;16.83;5.97;;;7.60;99.70;;;;;;5018661;28;20098;-72
2022/04/28 02:00:07;;;;;;;11.07;5.63;;;7.60;99.70;;;;;;5032673;28;20028;-72
2022/04/28 02:02:34;;;;;;;11.38;5.80;;;7.60;99.80;;;;;;5017392;28;20036;-72
2022/04/28 02:05:00;;;;;;;16.00;7.22;;;7.60;99.80;;;;;;5034939;28;20780;-72
2022/04/28 02:07:27;;;;;;;9.75;5.20;;;7.60;99.90;;;;;;5020371;28;20041;-75
2022/04/28 02:09:53;;;;;;;12.10;6.53;;;7.60;99.90;;;;;;5018532;28;20481;-74
2022/04/28 02:12:19;;;;;;;14.05;6.65;;;7.50;99.90;;;;;;5013269;28;20040;-74
2022/04/28 02:14:46;;;;;;;10.20;5.60;;;7.50;99.90;;;;;;5018546;28;20021;-76
2022/04/28 02:17:32;;;;;;;12.65;6.40;;;7.60;99.90;;;;;;5035666;28;20131;-74
2022/04/28 02:20:03;;;;;;;11.30;6.65;;;7.60;99.90;;;;;;5018125;28;20118;-74
2022/04/28 02:22:29;;;;;;;17.15;6.57;;;7.60;99.90;;;;;;5033628;28;20029;-74
2022/04/28 02:24:54;;;;;;;12.35;6.38;;;7.60;99.90;;;;;;5035496;28;20095;-72
2022/04/28 02:27:20;;;;;;;13.15;6.60;;;7.60;99.90;;;;;;5012237;28;20037;-72
2022/04/28 02:29:46;;;;;;;16.10;7.00;;;7.60;99.90;;;;;;5016075;28;20029;-72
2022/04/28 02:32:11;;;;;;;11.35;6.15;;;7.50;99.90;;;;;;5038124;28;20397;-73
2022/04/28 02:34:37;;;;;;;9.60;6.78;;;7.50;99.90;;;;;;5038383;28;20040;-72
2022/04/28 02:37:05;;;;;;;15.88;7.38;;;7.40;99.90;;;;;;5003086;28;20540;-72
2022/04/28 02:39:32;;;;;;;13.07;6.38;;;7.40;99.90;;;;;;5032914;28;20387;-72
2022/04/28 02:41:58;;;;;;;12.32;6.50;;;7.40;99.90;;;;;;5017384;28;20032;-72
2022/04/28 02:44:26;;;;;;;12.02;6.63;;;7.40;99.90;;;;;;5018160;28;20028;-71
2022/04/28 02:46:52;;;;;;;11.30;7.00;;;7.40;99.90;;;;;;5033884;28;20040;-72
2022/04/28 02:49:18;;;;;;;12.85;6.95;;;7.40;99.90;;;;;;4998349;28;20404;-72
2022/04/28 02:51:44;;;;;;;13.32;6.90;;;7.40;99.90;;;;;;5016178;28;20549;-72
2022/04/28 02:54:10;;;;;;;12.18;6.82;;;7.30;99.90;;;;;;5034914;28;20026;-72
2022/04/28 02:56:35;;;;;;;13.95;6.63;;;7.40;99.90;;;;;;5031802;28;20033;-72
2022/04/28 02:59:01;;;;;;;18.70;7.85;;;7.30;99.90;;;;;;5035507;28;20045;-72
2022/04/28 03:01:27;;;;;;;15.48;7.78;;;7.30;99.90;;;;;;5032293;28;20038;-72
2022/04/28 03:03:54;;;;;;;13.60;7.43;;;7.20;99.90;;;;;;5015514;28;20029;-72
2022/04/28 03:11:52;;;;;;;20.08;8.07;;;7.10;99.90;;;;;;5035986;28;20052;-72
2022/04/28 03:14:19;;;;;;;17.30;9.18;;;7.10;99.90;;;;;;5034164;28;20290;-72
2022/04/28 03:16:44;;;;;;;19.27;8.35;;;7.10;99.90;;;;;;5015781;28;20030;-72
2022/04/28 03:19:10;;;;;;;16.38;7.65;;;7.00;99.90;;;;;;5016598;28;20404;-72
2022/04/28 03:21:39;;;;;;;15.23;8.07;;;7.00;99.90;;;;;;5017752;28;20033;-72
2022/04/28 03:24:06;;;;;;;12.30;7.57;;;6.90;99.90;;;;;;5018040;28;20025;-72
2022/04/28 03:26:32;;;;;;;14.15;7.85;;;6.90;99.90;;;;;;5018456;28;20452;-72
2022/04/28 03:28:58;;;;;;;18.67;8.45;;;6.90;99.90;;;;;;5019716;28;20029;-72
2022/04/28 03:31:24;;;;;;;15.63;8.00;;;6.90;99.90;;;;;;5035144;28;20026;-73
2022/04/28 03:33:50;;;;;;;15.10;7.60;;;7.00;99.90;;;;;;5018260;28;20091;-74
2022/04/28 03:39:01;;;;;;;20.77;8.18;;;7.00;99.90;;;;;;5035113;28;20025;-74
2022/04/28 03:41:27;;;;;;;12.40;7.43;;;7.00;99.90;;;;;;4998307;28;20030;-73
2022/04/28 03:43:53;;;;;;;20.67;7.78;;;7.00;99.90;;;;;;5021132;28;20026;-74
2022/04/28 03:46:19;;;;;;;13.45;7.88;;;7.00;99.90;;;;;;5016333;28;20663;-72
2022/04/28 03:48:45;;;;;;;11.35;7.18;;;7.00;99.90;;;;;;5018915;28;20039;-73
2022/04/28 03:51:11;;;;;;;19.33;8.40;;;7.00;99.90;;;;;;5015149;28;20029;-72
2022/04/28 03:53:38;;;;;;;13.13;6.95;;;7.00;99.90;;;;;;5035526;28;20452;-71
2022/04/28 03:56:07;;;;;;;14.75;7.57;;;6.90;99.90;;;;;;5017483;28;20017;-72
2022/04/28 03:58:33;;;;;;;14.70;8.07;;;6.90;99.90;;;;;;5018784;28;20043;-72
2022/04/28 04:00:59;;;;;;;13.75;7.30;;;6.90;99.90;;;;;;5023076;28;20116;-75
2022/04/28 04:03:25;;;;;;;14.10;7.22;;;6.90;99.90;;;;;;5005752;28;20033;-74
2022/04/28 04:05:50;;;;;;;16.52;7.25;;;6.90;99.90;;;;;;5034612;28;20353;-72
2022/04/28 04:08:17;;;;;;;17.77;7.40;;;6.90;99.90;;;;;;5005413;28;20179;-73
2022/04/28 04:10:43;;;;;;;16.35;7.97;;;6.90;99.90;;;;;;5037915;28;20107;-71
2022/04/28 04:13:08;;;;;;;13.25;6.97;;;6.90;99.90;;;;;;5023854;28;20025;-72
2022/04/28 04:15:34;;;;;;;15.30;7.55;;;6.90;99.90;;;;;;5010507;28;20026;-72
2022/04/28 04:18:02;;;;;;;17.35;8.32;;;6.90;99.90;;;;;;5038321;28;20512;-74
2022/04/28 04:20:28;;;;;;;19.35;8.57;;;6.80;99.90;;;;;;5018239;28;20512;-72
2022/04/28 04:22:54;;;;;;;12.32;7.70;;;6.80;99.90;;;;;;5038315;28;20044;-74
2022/04/28 04:25:21;;;;;;;22.48;8.88;;;6.80;99.90;;;;;;5013920;28;20117;-72
2022/04/28 04:27:47;;;;;;;17.60;8.38;;;6.80;99.90;;;;;;5020915;28;20098;-72
2022/04/28 04:32:58;;;;;;;18.05;7.55;;;6.80;99.90;;;;;;5034767;28;20021;-73
2022/04/28 04:35:25;;;;;;;15.43;7.85;;;6.90;99.90;;;;;;5016631;28;20021;-72
2022/04/28 04:37:51;;;;;;;17.63;8.02;;;6.90;99.90;;;;;;5021351;28;20036;-72
2022/04/28 04:40:17;;;;;;;15.20;8.23;;;6.90;99.90;;;;;;5032280;28;20036;-74
2022/04/28 04:42:43;;;;;;;16.30;8.13;;;6.90;99.90;;;;;;5024345;28;20029;-74
2022/04/28 04:45:10;;;;;;;12.02;7.78;;;7.00;99.90;;;;;;5000812;28;20515;-72
2022/04/28 04:47:36;;;;;;;15.50;7.70;;;7.00;99.90;;;;;;5034914;28;20025;-72
2022/04/28 04:50:03;;;;;;;17.05;8.48;;;7.00;99.90;;;;;;5035570;28;20037;-72
2022/04/28 04:52:29;;;;;;;13.95;7.85;;;7.00;99.90;;;;;;5018416;28;20039;-74
2022/04/28 04:54:56;;;;;;;16.70;7.88;;;7.10;99.90;;;;;;5011945;28;20482;-72
2022/04/28 04:57:21;;;;;;;17.00;8.45;;;7.10;99.90;;;;;;5016386;28;20207;-76
2022/04/28 04:59:47;;;;;;;18.02;8.23;;;7.20;99.90;;;;;;5036773;28;20166;-76
2022/04/28 05:02:13;;;;;;;17.02;7.90;;;7.20;99.90;;;;;;5012870;28;20527;-75
2022/04/28 05:04:38;;;;;;;17.70;8.02;;;7.30;99.90;;;;;;5037865;28;20025;-72
2022/04/28 05:07:04;;;;;;;17.63;8.57;;;7.30;99.90;;;;;;5016631;28;20029;-71
2022/04/28 05:09:29;;;;;;;16.90;8.45;;;7.40;99.90;;;;;;5031865;28;20030;-72
2022/04/28 05:11:55;;;;;;;16.60;8.25;;;7.50;99.90;;;;;;5032271;28;20021;-75
2022/04/28 05:14:21;;;;;;;15.95;7.85;;;7.50;99.90;;;;;;5014232;28;20082;-74
2022/04/28 05:16:46;;;;;;;19.38;8.18;;;7.50;99.90;;;;;;5034950;28;20044;-74
2022/04/28 05:19:12;;;;;;;18.15;8.32;;;7.50;99.90;;;;;;5015531;28;20056;-72
2022/04/28 05:21:38;;;;;;;16.65;8.40;;;7.60;99.90;;;;;;5014097;28;20405;-74
2022/04/28 05:24:04;;;;;;;18.23;9.00;;;7.70;99.90;;;;;;5018582;28;20049;-72
2022/04/28 05:26:30;;;;;;;16.92;8.07;;;7.80;99.90;;;;;;5019940;28;20048;-74
2022/04/28 05:28:55;;;;;;;14.32;7.88;;;7.80;99.90;;;;;;5030023;28;20113;-74
2022/04/28 05:31:21;;;;;;;21.80;8.90;;;7.80;99.90;;;;;;5012785;28;20025;-74
2022/04/28 05:33:48;;;;;;;21.83;7.63;;;7.90;99.90;;;;;;5015072;28;20479;-77
2022/04/28 05:36:15;;;;;;;14.75;7.60;;;7.80;99.90;;;;;;5012246;28;20033;-74
2022/04/28 05:38:42;;;;;;;16.58;7.85;;;7.90;99.90;;;;;;5016133;28;20036;-74
2022/04/28 05:41:08;;;;;;;16.13;8.60;;;8.00;99.90;;;;;;5025800;28;20116;-75
2022/04/28 05:46:20;;;;;;;15.23;7.45;;;8.10;99.90;;;;;;5024431;28;20078;-75
2022/04/28 05:48:47;;;;;;;20.42;7.93;;;8.20;99.90;;;;;;5015649;28;20090;-75
2022/04/28 05:51:13;;;;;;;17.35;7.90;;;8.20;99.90;;;;;;4996491;28;20660;-77
2022/04/28 05:53:39;;;;;;;13.60;7.25;;;8.20;99.90;;;;;;5017962;28;20025;-75
2022/04/28 05:56:05;;;;;;;16.95;7.95;;;8.30;99.90;;;;;;5013586;28;20017;-73
2022/04/28 05:58:32;;;;;;;14.73;7.07;;;8.30;99.90;;;;;;5035169;28;20123;-72
2022/04/28 06:00:58;;;;;;;20.52;7.78;;;8.40;99.90;;;;;;5035406;28;20028;-72
2022/04/28 06:03:23;;;;;;;13.63;7.90;;;8.40;99.90;;;;;;5016602;28;20033;-75
2022/04/28 06:05:49;;;;;;;13.95;7.22;;;8.50;99.90;;;;;;5031316;28;20037;-73
2022/04/28 06:08:15;;;;;;;16.63;8.18;;;8.60;99.90;;;;;;5012101;28;20029;-72
2022/04/28 06:10:40;;;;;;;16.15;7.68;;;8.70;99.90;;;;;;5024637;28;20037;-74
2022/04/28 06:13:06;;;;;;;14.35;6.60;;;8.70;99.90;;;;;;5012067;28;20120;-73
2022/04/28 06:15:32;;;;;;;12.80;6.72;;;8.80;99.90;;;;;;5028550;28;20099;-73
2022/04/28 06:17:58;;;;;;;15.52;7.38;;;8.90;99.90;;;;;;5000472;28;20425;-73
2022/04/28 06:20:24;;;;;;;14.85;7.30;;;9.00;99.90;;;;;;5029227;28;20037;-72
2022/04/28 06:22:50;;;;;;;16.00;7.40;;;9.00;99.90;;;;;;5026994;28;20060;-73
2022/04/28 06:25:16;;;;;;;10.90;6.75;;;9.10;99.90;;;;;;5026270;28;20133;-79
2022/04/28 06:27:43;;;;;;;10.95;7.00;;;9.10;99.90;;;;;;5029651;28;20034;-77
2022/04/28 06:30:09;;;;;;;12.43;5.70;;;9.20;99.90;;;;;;5015132;28;20509;-78
2022/04/28 06:32:35;;;;;;;10.88;5.25;;;9.30;99.90;;;;;;5030572;28;20448;-76
2022/04/28 06:35:03;;;;;;;16.33;5.03;;;9.30;99.90;;;;;;4997772;28;20025;-75
2022/04/28 06:37:29;;;;;;;14.45;4.30;;;9.40;99.90;;;;;;5016184;28;20497;-75
2022/04/28 06:39:56;;;;;;;10.98;4.80;;;9.50;99.90;;;;;;5017076;28;20461;-80
2022/04/28 06:42:22;;;;;;;16.05;5.13;;;9.50;99.90;;;;;;5015809;28;20029;-80
2022/04/28 06:44:48;;;;;;;10.50;4.93;;;9.60;99.90;;;;;;5013495;28;20032;-76
2022/04/28 06:47:16;;;;;;;6.63;3.90;;;9.60;99.90;;;;;;5017141;28;20118;-75
2022/04/28 06:49:42;;;;;;;10.88;4.68;;;9.70;99.90;;;;;;5033804;28;20211;-74
2022/04/28 06:52:08;;;;;;;8.43;3.85;;;9.70;99.90;;;;;;5008000;28;22046;-72
2022/04/28 06:54:38;;;;;;;9.82;4.63;;;9.80;99.90;;;;;;5028990;28;20045;-74
2022/04/28 06:57:04;;;;;;;13.52;4.93;;;9.80;99.90;;;;;;5012120;28;20166;-72
2022/04/28 06:59:31;;;;;;;8.65;3.78;;;9.80;99.90;;;;;;5028797;28;20048;-72
2022/04/28 07:01:57;;;;;;;10.60;3.90;;;9.90;99.90;;;;;;5016178;28;20079;-73
2022/04/28 07:04:23;;;;;;;9.23;3.40;;;9.90;99.90;;;;;;5016998;28;20026;-73
2022/04/28 07:06:48;;;;;;;9.95;3.20;;;10.00;99.90;;;;;;5036065;28;20097;-73
2022/04/28 07:09:14;;;;;;;6.00;2.95;;;10.00;99.90;;;;;;5014279;28;20117;-73
2022/04/28 07:11:40;;;;;;;9.70;3.33;;;10.10;99.90;;;;;;5016910;28;20030;-73
2022/04/28 07:14:05;;;;;;;6.75;3.22;;;10.10;99.80;;;;;;5020243;28;20178;-73
2022/04/28 07:16:31;;;;;;;7.00;3.38;;;10.20;99.70;;;;;;5016554;28;20530;-75
2022/04/28 07:18:57;;;;;;;11.55;3.28;;;10.30;99.60;;;;;;5041460;28;20028;-76
2022/04/28 07:21:23;;;;;;;8.25;3.58;;;10.40;99.30;;;;;;5017353;28;20400;-72
2022/04/28 07:23:48;;;;;;;8.43;3.10;;;10.30;99.20;;;;;;5014760;28;20024;-74
2022/04/28 07:26:14;;;;;;;6.25;3.20;;;10.40;99.10;;;;;;4998794;28;20029;-71
2022/04/28 07:28:40;;;;;;;7.13;3.20;;;10.40;99.00;;;;;;5027861;28;21051;-72
2022/04/28 07:31:05;;;;;;;12.38;3.65;;;10.40;98.90;;;;;;5006589;28;20401;-71
2022/04/28 07:33:33;;;;;;;11.55;3.10;;;10.50;98.80;;;;;;5033034;28;20346;-72
2022/04/28 07:35:58;;;;;;;7.55;3.70;;;10.60;98.60;;;;;;5036584;28;20025;-72
2022/04/28 07:38:24;;;;;;;10.55;4.10;;;10.60;98.40;;;;;;5019513;28;20044;-74
2022/04/28 07:40:53;;;;;;;7.97;3.20;;;10.50;98.40;;;;;;5018875;28;20108;-75
2022/04/28 07:43:20;;;;;;;7.53;3.13;;;10.50;98.60;;;;;;5019603;28;20033;-75
2022/04/28 07:45:47;;;;;;;8.38;3.05;;;10.60;98.70;;;;;;5031456;28;20876;-72
2022/04/28 07:48:14;;;;;;;10.70;3.70;;;10.70;98.80;;;;;;5037117;28;20033;-73
2022/04/28 07:50:40;;;;;;;9.05;3.83;;;10.80;98.40;;;;;;5026944;28;20078;-72
2022/04/28 07:53:06;;;;;;;8.10;3.42;;;10.80;98.20;;;;;;5014590;28;20538;-72
2022/04/28 07:55:32;;;;;;;7.25;3.63;;;10.90;98.20;;;;;;5036443;28;20084;-72
2022/04/28 07:57:57;;;;;;;7.05;3.50;;;10.90;97.90;;;;;;5021444;28;20025;-72
2022/04/28 08:00:23;;;;;;;9.50;3.58;;;10.90;97.90;;;;;;5031317;28;20565;-72
2022/04/28 08:02:49;;;;;;;6.38;3.33;;;10.90;97.90;;;;;;5008573;28;20029;-71
2022/04/28 08:05:15;;;;;;;7.90;3.30;;;10.90;98.10;;;;;;5026600;28;20029;-72
2022/04/28 08:07:41;;;;;;;9.98;4.57;;;10.90;98.00;;;;;;5020528;28;20037;-72
2022/04/28 08:10:07;;;;;;;9.57;4.22;;;11.00;97.90;;;;;;5022253;28;20080;-72
2022/04/28 08:12:33;;;;;;;9.25;4.00;;;11.00;98.00;;;;;;5017714;28;20489;-72
2022/04/28 08:14:59;;;;;;;7.22;3.72;;;11.10;98.00;;;;;;5036398;28;20035;-72
2022/04/28 08:17:26;;;;;;;10.63;4.78;;;11.10;97.90;;;;;;4991380;28;20033;-72
2022/04/28 08:19:52;;;;;;;9.65;4.25;;;11.10;97.70;;;;;;5029018;28;20028;-72
2022/04/28 08:22:18;;;;;;;9.48;4.65;;;11.10;98.20;;;;;;5038044;28;20041;-72
2022/04/28 08:24:43;;;;;;;14.85;4.65;;;11.20;98.10;;;;;;5017924;28;20041;-72
2022/04/28 08:27:09;;;;;;;17.10;5.10;;;11.20;97.40;;;;;;5011434;28;20531;-72
2022/04/28 08:29:35;;;;;;;12.45;5.13;;;11.20;97.40;;;;;;5009386;28;20033;-74
2022/04/28 08:32:01;;;;;;;11.77;4.82;;;11.30;97.40;;;;;;5014551;28;20030;-75
2022/04/28 08:34:26;;;;;;;11.48;4.78;;;11.30;97.40;;;;;;5000281;28;20422;-77
2022/04/28 08:36:52;;;;;;;13.00;4.47;;;11.40;97.30;;;;;;5024602;28;20587;-76
2022/04/28 08:39:18;;;;;;;7.18;4.20;;;11.40;97.10;;;;;;5006482;28;20032;-72
2022/04/28 08:41:47;;;;;;;7.68;4.50;;;11.50;97.10;;;;;;5020171;28;20151;-72
2022/04/28 08:44:26;;;;;;;8.48;4.82;;;11.50;96.80;;;;;;5035845;28;20037;-72
2022/04/28 08:46:54;;;;;;;7.25;4.20;;;11.50;96.70;;;;;;5038294;28;20415;-75
2022/04/28 08:49:22;;;;;;;10.93;5.03;;;11.50;96.70;;;;;;5016880;28;20068;-74
2022/04/28 08:51:56;;;;;;;15.45;6.45;;;11.60;97.00;;;;;;5016826;28;20032;-74
2022/04/28 08:54:24;;;;;;;17.70;6.30;;;11.60;97.30;;;;;;4995766;28;20025;-77
2022/04/28 08:56:52;;;;;;;9.52;4.85;;;11.60;97.30;;;;;;5033457;28;20025;-74
2022/04/28 08:59:19;;;;;;;13.75;5.57;;;11.70;97.40;;;;;;5028310;28;21187;-78
2022/04/28 09:01:45;;;;;;;11.88;5.05;;;11.80;97.50;;;;;;5008157;28;20042;-75
2022/04/28 09:04:11;;;;;;;10.00;4.40;;;11.90;97.00;;;;;;5023767;28;20033;-76
2022/04/28 09:06:38;;;;;;;13.15;5.15;;;12.00;97.00;;;;;;5033127;28;20085;-76
2022/04/28 09:09:10;;;;;;;10.63;5.03;;;12.00;97.10;;;;;;5012711;28;20026;-72
2022/04/28 09:11:37;;;;;;;11.02;4.63;;;12.10;97.20;;;;;;5026794;28;20325;-73
2022/04/28 09:14:15;;;;;;;5.47;4.03;;;12.20;96.90;;;;;;5034939;28;20025;-72
2022/04/28 09:16:49;;;;;;;12.05;6.03;;;12.30;96.70;;;;;;5012700;28;20441;-74
2022/04/28 09:19:24;;;;;;;10.20;5.03;;;12.40;96.20;;;;;;5028835;28;20074;-76
2022/04/28 09:21:54;;;;;;;11.02;5.55;;;12.40;96.10;;;;;;5014949;28;20055;-75
2022/04/28 09:24:21;;;;;;;17.40;6.13;;;12.50;95.70;;;;;;5039369;28;20052;-75
2022/04/28 09:26:49;;;;;;;9.68;5.35;;;12.50;94.90;;;;;;5031536;28;20295;-75
2022/04/28 09:29:16;;;;;;;7.60;5.15;;;12.60;95.20;;;;;;5019496;28;20025;-76
2022/04/28 09:31:44;;;;;;;10.15;6.00;;;12.60;95.30;;;;;;5035301;28;20096;-76
2022/04/28 09:34:21;;;;;;;9.52;5.68;;;12.60;95.40;;;;;;5036832;28;20621;-75
2022/04/28 09:36:48;;;;;;;11.18;5.65;;;12.70;95.80;;;;;;5017408;28;20482;-73
2022/04/28 09:42:29;;;;;;;8.80;5.70;;;12.80;95.80;;;;;;5016579;28;20021;-73
2022/04/28 09:44:52;;;;;;;11.88;5.22;;;13.00;96.10;;;;;;5034792;28;20389;-75
2022/04/28 09:47:22;;;;;;;17.02;7.00;;;13.10;95.50;;;;;;5014939;28;20022;-73
2022/04/28 09:49:52;;;;;;;10.52;6.50;;;13.20;94.80;;;;;;5030816;28;20057;-73
2022/04/28 09:52:24;;;;;;;9.90;6.03;;;13.40;94.40;;;;;;5009369;28;20029;-72
2022/04/28 09:55:03;;;;;;;14.30;6.65;;;13.40;93.90;;;;;;5013698;28;20023;-73
2022/04/28 09:57:29;;;;;;;14.77;6.03;;;13.40;93.50;;;;;;5011449;28;20037;-75
2022/04/28 09:59:56;;;;;;;11.35;6.13;;;13.40;93.90;;;;;;5033348;28;20052;-73
2022/04/28 10:02:27;;;;;;;10.88;6.32;;;13.40;93.90;;;;;;5031780;28;20025;-73
2022/04/28 10:04:54;;;;;;;9.98;6.03;;;13.50;93.50;;;;;;5009469;28;20024;-73
2022/04/28 10:07:21;;;;;;;9.52;5.40;;;13.50;93.60;;;;;;4995016;28;20539;-75
2022/04/28 10:09:50;;;;;;;9.63;5.45;;;13.50;93.80;;;;;;5015757;28;20152;-75
2022/04/28 10:12:20;;;;;;;12.50;6.85;;;13.50;93.70;;;;;;5008849;28;20039;-76
2022/04/28 10:14:47;;;;;;;14.02;7.05;;;13.60;93.90;;;;;;5024401;28;20021;-78
2022/04/28 10:17:20;;;;;;;11.70;6.13;;;13.70;93.80;;;;;;5015790;28;20117;-74
2022/04/28 10:19:54;;;;;;;10.05;5.93;;;13.80;93.60;;;;;;5032208;28;21472;-74
2022/04/28 10:22:29;;;;;;;10.35;4.80;;;14.10;93.20;;;;;;5032115;28;20054;-75
2022/04/28 10:33:15;;;;;;;11.18;5.28;;;14.30;92.10;;;;;;5017724;28;20082;-81
2022/04/28 10:35:42;;;;;;;8.80;5.15;;;14.30;91.70;;;;;;5031211;28;20160;-77
2022/04/28 10:38:31;;;;;;;10.10;5.57;;;14.30;91.90;;;;;;5002146;28;20033;-77
2022/04/28 10:41:03;;;;;;;9.32;6.38;;;14.30;91.80;;;;;;4996885;28;20688;-75
2022/04/28 10:43:32;;;;;;;11.27;5.85;;;14.30;91.60;;;;;;4992650;28;20029;-76
2022/04/28 10:46:04;;;;;;;9.88;5.82;;;14.30;90.70;;;;;;4996211;28;20128;-75
2022/04/28 10:48:29;;;;;;;10.98;5.10;;;14.30;90.60;;;;;;5013913;28;20029;-77
2022/04/28 10:51:05;;;;;;;9.70;5.35;;;14.30;90.70;;;;;;5030609;28;20467;-75
2022/04/28 10:53:34;;;;;;;7.53;4.60;;;14.40;90.80;;;;;;5008385;28;20055;-75
2022/04/28 10:56:12;;;;;;;10.48;4.70;;;14.30;90.60;;;;;;4996473;28;20026;-74
2022/04/28 10:58:38;;;;;;;11.13;5.32;;;14.40;90.70;;;;;;5026952;28;20038;-75
2022/04/28 11:01:04;;;;;;;11.18;5.80;;;14.60;90.70;;;;;;5028076;28;20393;-76
2022/04/28 11:03:52;;;;;;;7.35;5.25;;;14.80;90.30;;;;;;5014592;28;20028;-73
2022/04/28 11:06:34;;;;;;;11.27;5.60;;;14.90;89.00;;;;;;5003930;28;20029;-75
2022/04/28 11:09:02;;;;;;;8.48;5.50;;;15.00;89.60;;;;;;5019391;28;20557;-73
2022/04/28 11:11:47;;;;;;;9.20;5.53;;;16.10;88.30;;;;;;5039276;28;20119;-75
2022/04/28 11:14:14;;;;;;;10.60;5.57;;;17.50;82.20;;;;;;5023300;28;20033;-73
2022/04/28 11:16:43;;;;;;;13.10;5.00;;;19.00;76.70;;;;;;5018460;28;20112;-75
2022/04/28 11:19:11;;;;;;;8.35;4.72;;;21.00;69.10;;;;;;5037811;28;20096;-73
2022/04/28 11:21:39;;;;;;;11.38;4.15;;;22.80;62.10;;;;;;5041092;28;20033;-72
2022/04/28 11:24:06;;;;;;;7.13;3.15;;;24.50;56.10;;;;;;5015368;28;20025;-74
2022/04/28 11:26:34;;;;;;;8.15;4.65;;;26.10;51.90;;;;;;5036759;28;20064;-74
2022/04/28 11:29:08;;;;;;;8.45;4.40;;;27.70;45.30;;;;;;5005472;28;20029;-78
2022/04/28 11:31:34;;;;;;;6.43;3.60;;;28.50;42.20;;;;;;5008604;28;20103;-78
2022/04/28 11:34:05;;;;;;;9.40;3.38;;;27.60;43.00;;;;;;5013792;28;20654;-76
2022/04/28 11:36:31;;;;;;;9.38;4.47;;;27.00;42.90;;;;;;5017512;28;20062;-73
2022/04/28 11:38:58;;;;;;;11.13;5.28;;;25.30;42.40;;;;;;5036590;28;20029;-72
2022/04/28 11:41:28;;;;;;;5.60;3.70;;;23.60;44.60;;;;;;5019134;28;20033;-72
2022/04/28 11:43:53;;;;;;;6.43;3.70;;;23.00;48.00;;;;;;5015443;28;20040;-72
2022/04/28 11:46:19;;;;;;;6.25;3.40;;;23.10;48.90;;;;;;5028224;28;20063;-72
2022/04/28 11:48:51;;;;;;;8.15;4.00;;;23.50;50.00;;;;;;4996178;28;20029;-75
2022/04/28 11:51:22;;;;;;;8.02;3.13;;;23.90;48.90;;;;;;5019058;28;20033;-75
2022/04/28 11:53:48;;;;;;;6.68;3.90;;;24.20;48.60;;;;;;5003915;28;20078;-72
2022/04/28 11:56:18;;;;;;;8.57;5.10;;;24.10;48.70;;;;;;5037410;28;20507;-78
2022/04/28 11:58:52;;;;;;;7.88;3.83;;;24.20;47.10;;;;;;5017345;28;20032;-77
2022/04/28 12:01:22;;;;;;;9.23;4.30;;;24.40;46.90;;;;;;5037505;28;20033;-73
2022/04/28 12:03:51;;;;;;;7.43;5.47;;;24.60;45.40;;;;;;5025000;28;20033;-78
2022/04/28 12:06:17;;;;;;;7.63;4.40;;;24.40;44.80;;;;;;5034496;28;20078;-77
2022/04/28 12:08:55;;;;;;;8.65;4.43;;;23.90;46.70;;;;;;5036926;28;20179;-72
2022/04/28 12:14:28;;;;;;;6.60;4.30;;;22.50;47.30;;;;;;5022262;28;20048;-75
2022/04/28 12:19:49;;;;;;;12.10;5.63;;;20.60;51.20;;;;;;5033640;28;20040;-77
2022/04/28 12:22:27;;;;;;;9.63;5.65;;;20.10;53.00;;;;;;4990235;28;20044;-76
2022/04/28 12:25:00;;;;;;;8.27;5.28;;;21.00;53.60;;;;;;5011994;28;20030;-76
2022/04/28 12:27:51;;;;;;;9.98;4.82;;;21.10;51.20;;;;;;5027970;28;20028;-79
2022/04/28 12:30:18;;;;;;;11.80;6.60;;;20.80;52.60;;;;;;5012885;28;20032;-71
2022/04/28 12:32:53;;;;;;;10.23;6.60;;;21.50;51.20;;;;;;5015301;28;20037;-75
2022/04/28 12:35:29;;;;;;;6.75;5.03;;;21.30;50.10;;;;;;5034261;28;20051;-73
2022/04/28 12:37:58;;;;;;;9.88;5.40;;;21.00;50.50;;;;;;5017441;28;20401;-76
2022/04/28 12:40:25;;;;;;;7.93;5.00;;;20.70;52.90;;;;;;5026635;28;20083;-75
2022/04/28 12:42:53;;;;;;;10.60;6.32;;;21.80;52.30;;;;;;5015136;28;20048;-77
2022/04/28 12:45:50;;;;;;;7.28;5.80;;;22.30;49.00;;;;;;5014499;28;20118;-72
2022/04/28 12:48:27;;;;;;;11.60;5.82;;;21.90;48.90;;;;;;5030541;28;20040;-71
2022/04/28 12:51:12;;;;;;;10.80;6.63;;;21.60;49.10;;;;;;5034760;28;20029;-73
2022/04/28 12:53:59;;;;;;;6.85;5.40;;;20.70;49.30;;;;;;5035806;28;20033;-73
2022/04/28 12:56:28;;;;;;;9.63;6.25;;;20.60;51.50;;;;;;5022921;28;20059;-73
2022/04/28 12:58:57;;;;;;;11.05;5.78;;;22.10;49.00;;;;;;5013552;28;20029;-73
2022/04/28 13:01:23;;;;;;;7.05;5.30;;;23.90;47.40;;;;;;5010161;28;20052;-73
2022/04/28 13:03:55;;;;;;;8.88;5.70;;;25.10;45.20;;;;;;5031287;28;20044;-72
2022/04/28 13:06:26;;;;;;;9.00;5.28;;;26.00;42.20;;;;;;5008157;28;20040;-72
2022/04/28 13:08:52;;;;;;;7.57;4.55;;;26.30;41.30;;;;;;5017529;28;20048;-76
2022/04/28 13:11:27;;;;;;;11.75;5.75;;;26.20;42.40;;;;;;5016702;28;20064;-77
2022/04/28 13:13:53;;;;;;;7.28;4.20;;;26.80;40.20;;;;;;5034674;28;20033;-74
2022/04/28 13:16:19;;;;;;;8.63;4.80;;;27.20;40.60;;;;;;5018730;28;20061;-74
2022/04/28 13:18:45;;;;;;;9.23;5.15;;;27.00;40.00;;;;;;5010415;28;20026;-73
2022/04/28 13:21:12;;;;;;;7.63;5.68;;;26.20;40.20;;;;;;5036913;28;20094;-75
2022/04/28 13:23:39;;;;;;;6.25;5.03;;;24.60;42.10;;;;;;5033319;28;20048;-74
2022/04/28 13:26:05;;;;;;;9.77;5.70;;;23.40;44.40;;;;;;5030137;28;20025;-75